Time;durP1;ratioP1;P1;durP2;ratioP2;P2;SDS_P1;SDS_P2;PMS_P1;PMS_P2;Temp;Humidity;BMP_temperature;BMP_pressure;BME280_temperature;BME280_humidity;BME280_pressure;Samples;Min_cycle;Max_cycle;Signal;HPM_P1;HPM_P2
2021/11/03 00:02:27;;;;;;;2.72;1.25;;;22.30;49.70;;;;;;5184799;28;20480;-44
2021/11/03 00:05:01;;;;;;;4.22;1.50;;;22.20;49.60;;;;;;5187971;28;20049;-47
2021/11/03 00:07:33;;;;;;;;;;;22.30;49.50;;;;;;5191160;28;20049;-47
2021/11/03 00:10:08;;;;;;;2.08;1.25;;;22.20;49.50;;;;;;5190311;28;19947;-45
2021/11/03 00:12:41;;;;;;;1.73;1.52;;;22.20;49.60;;;;;;5187900;28;20389;-47
2021/11/03 00:15:13;;;;;;;2.20;1.42;;;22.20;49.60;;;;;;5183980;28;20072;-45
2021/11/03 00:17:45;;;;;;;1.92;1.20;;;22.20;49.40;;;;;;5183471;28;20064;-48
2021/11/03 00:20:18;;;;;;;1.75;1.17;;;22.20;49.30;;;;;;5183846;28;20064;-45
2021/11/03 00:22:50;;;;;;;3.10;1.10;;;22.20;49.40;;;;;;5185628;28;20237;-45
2021/11/03 00:25:24;;;;;;;2.22;1.10;;;22.20;49.30;;;;;;5182399;28;20412;-45
2021/11/03 00:27:57;;;;;;;3.03;1.15;;;22.20;49.40;;;;;;5180762;28;20060;-46
2021/11/03 00:30:30;;;;;;;2.17;1.23;;;22.20;49.50;;;;;;5182536;28;20413;-46
2021/11/03 00:33:02;;;;;;;4.47;1.60;;;22.20;49.60;;;;;;5184988;28;20049;-47
2021/11/03 00:35:35;;;;;;;3.22;1.02;;;22.20;49.40;;;;;;5181178;28;21439;-51
2021/11/03 00:38:07;;;;;;;3.08;0.93;;;22.20;49.30;;;;;;5184077;28;20056;-45
2021/11/03 00:40:40;;;;;;;1.88;1.10;;;22.20;49.30;;;;;;5184235;28;20045;-47
2021/11/03 00:43:13;;;;;;;2.80;1.13;;;22.10;49.30;;;;;;5181971;28;20041;-48
2021/11/03 00:45:46;;;;;;;6.37;1.27;;;22.20;49.20;;;;;;5155962;28;20291;-45
2021/11/03 00:48:20;;;;;;;10.57;1.58;;;22.20;49.50;;;;;;5169090;28;20045;-48
2021/11/03 00:50:53;;;;;;;3.08;1.02;;;22.10;49.50;;;;;;5191153;23;20048;-67
2021/11/03 00:53:25;;;;;;;7.43;1.83;;;22.10;49.40;;;;;;5162271;28;20037;-67
2021/11/03 00:55:58;;;;;;;5.87;1.03;;;22.10;49.10;;;;;;5167698;28;20045;-67
2021/11/03 00:58:30;;;;;;;5.32;1.45;;;22.10;49.00;;;;;;5179035;28;20378;-67
2021/11/03 01:01:03;;;;;;;5.18;1.25;;;22.10;49.00;;;;;;5140819;28;20046;-66
2021/11/03 01:03:36;;;;;;;2.80;1.10;;;22.10;49.10;;;;;;5159972;28;20049;-67
2021/11/03 01:06:08;;;;;;;1.50;0.93;;;22.10;48.90;;;;;;5142665;28;21116;-67
2021/11/03 01:08:41;;;;;;;1.25;0.90;;;22.10;48.80;;;;;;5154860;28;20045;-67
2021/11/03 01:11:14;;;;;;;1.77;0.82;;;22.10;48.80;;;;;;5162963;28;20053;-67
2021/11/03 01:14:07;;;;;;;2.78;0.90;;;22.10;48.80;;;;;;5160651;28;20057;-67
2021/11/03 01:16:40;;;;;;;1.85;1.00;;;22.10;48.80;;;;;;5159142;28;20048;-67
2021/11/03 01:19:12;;;;;;;1.77;1.20;;;22.10;48.70;;;;;;5159847;28;20065;-65
2021/11/03 01:21:46;;;;;;;3.90;1.10;;;22.10;48.70;;;;;;5157046;28;20061;-65
2021/11/03 01:24:19;;;;;;;1.52;1.10;;;22.10;48.70;;;;;;5156812;28;20050;-65
2021/11/03 01:26:51;;;;;;;2.25;1.00;;;22.10;48.70;;;;;;5159665;28;20375;-65
2021/11/03 01:29:23;;;;;;;2.72;1.02;;;22.10;48.60;;;;;;5162730;28;20041;-65
2021/11/03 01:31:56;;;;;;;2.30;0.90;;;22.00;48.60;;;;;;5159276;28;20049;-67
2021/11/03 01:34:28;;;;;;;1.35;0.93;;;22.10;48.60;;;;;;5142309;28;20135;-67
2021/11/03 01:37:01;;;;;;;3.13;0.88;;;22.00;48.70;;;;;;5140703;28;20061;-67
2021/11/03 01:39:33;;;;;;;2.65;0.88;;;22.10;48.70;;;;;;5140490;28;20041;-67
2021/11/03 01:42:06;;;;;;;4.72;1.10;;;22.00;48.90;;;;;;5162248;28;20053;-67
2021/11/03 01:44:39;;;;;;;1.48;0.95;;;22.00;48.80;;;;;;5156537;28;20490;-67
2021/11/03 01:47:43;;;;;;;1.85;0.80;;;22.00;48.60;;;;;;5151256;28;20054;-66
2021/11/03 01:50:22;;;;;;;3.00;0.93;;;22.00;48.70;;;;;;5143935;28;20045;-67
2021/11/03 01:53:11;;;;;;;1.15;0.80;;;22.00;48.70;;;;;;5157173;28;20134;-67
2021/11/03 01:56:04;;;;;;;1.15;0.90;;;22.00;48.70;;;;;;5144272;28;20617;-67
2021/11/03 01:58:46;;;;;;;2.78;0.90;;;22.00;48.60;;;;;;5171368;28;20060;-67
2021/11/03 02:01:19;;;;;;;5.28;0.80;;;22.00;48.50;;;;;;5149425;28;20046;-67
2021/11/03 02:03:53;;;;;;;3.72;0.90;;;22.00;48.40;;;;;;5163352;28;20490;-67
2021/11/03 02:06:26;;;;;;;1.70;1.00;;;22.00;49.00;;;;;;5161294;28;20624;-67
2021/11/03 02:08:59;;;;;;;0.77;0.63;;;22.00;48.40;;;;;;5146496;28;20046;-67
2021/11/03 02:11:32;;;;;;;1.23;0.70;;;22.00;48.20;;;;;;5159038;28;20054;-67
2021/11/03 02:14:06;;;;;;;3.70;0.73;;;22.00;48.10;;;;;;5146829;28;20061;-67
2021/11/03 02:16:45;;;;;;;0.70;0.55;;;22.00;48.00;;;;;;5160461;28;20057;-67
2021/11/03 02:19:24;;;;;;;1.25;0.70;;;22.00;47.90;;;;;;5144514;28;20049;-67
2021/11/03 02:22:32;;;;;;;1.13;1.02;;;22.00;48.00;;;;;;5141973;28;20531;-67
2021/11/03 02:25:07;;;;;;;0.80;0.60;;;22.00;47.70;;;;;;5143006;28;20054;-67
2021/11/03 02:27:43;;;;;;;2.30;0.70;;;22.00;47.70;;;;;;5135375;28;20052;-67
2021/11/03 02:30:18;;;;;;;2.50;0.70;;;22.00;47.70;;;;;;5158231;28;20680;-67
2021/11/03 02:33:03;;;;;;;1.25;0.80;;;21.90;47.60;;;;;;5159171;28;20058;-67
2021/11/03 02:35:37;;;;;;;2.83;0.68;;;21.90;47.40;;;;;;5162242;28;22264;-67
2021/11/03 02:38:22;;;;;;;1.25;0.80;;;21.90;47.40;;;;;;5162045;28;20053;-67
2021/11/03 02:41:01;;;;;;;1.08;0.65;;;21.90;47.40;;;;;;5167821;28;20053;-67
2021/11/03 02:43:44;;;;;;;3.08;0.80;;;21.90;47.60;;;;;;5147008;28;20049;-67
2021/11/03 02:46:17;;;;;;;1.20;0.60;;;21.90;47.70;;;;;;5162872;28;20049;-67
2021/11/03 02:48:52;;;;;;;1.23;0.70;;;21.90;47.50;;;;;;5146438;28;20038;-67
2021/11/03 02:51:28;;;;;;;1.13;0.80;;;21.90;47.50;;;;;;5138963;28;20058;-67
2021/11/03 02:54:05;;;;;;;2.92;1.00;;;21.90;47.40;;;;;;5161129;28;20038;-67
2021/11/03 02:56:44;;;;;;;1.00;0.82;;;21.90;47.40;;;;;;5149923;28;23307;-67
2021/11/03 02:59:19;;;;;;;0.85;0.68;;;21.90;47.30;;;;;;5165269;28;20241;-67
2021/11/03 03:01:56;;;;;;;3.83;0.73;;;21.90;47.30;;;;;;5166654;28;20049;-67
2021/11/03 03:04:37;;;;;;;1.35;0.90;;;21.90;47.30;;;;;;5149891;28;20527;-67
2021/11/03 03:07:11;;;;;;;1.38;0.80;;;21.80;47.10;;;;;;5157468;28;20053;-66
2021/11/03 03:09:44;;;;;;;1.23;0.63;;;21.90;47.30;;;;;;5162326;28;20050;-67
2021/11/03 03:12:20;;;;;;;0.82;0.70;;;21.90;47.10;;;;;;5144652;28;20050;-65
2021/11/03 03:14:54;;;;;;;1.55;1.10;;;21.90;47.30;;;;;;5158960;28;20054;-64
2021/11/03 03:17:27;;;;;;;2.80;0.80;;;21.90;47.10;;;;;;5158508;28;20049;-67
2021/11/03 03:20:00;;;;;;;2.57;0.90;;;21.90;47.10;;;;;;5162118;28;21053;-69
2021/11/03 03:22:33;;;;;;;0.82;0.68;;;21.80;47.10;;;;;;5163737;28;20688;-68
2021/11/03 03:25:06;;;;;;;1.00;0.60;;;21.90;47.20;;;;;;5163839;28;20073;-68
2021/11/03 03:27:38;;;;;;;2.40;0.98;;;21.80;47.20;;;;;;5146448;28;20049;-67
2021/11/03 03:30:15;;;;;;;0.88;0.60;;;21.80;47.30;;;;;;5162035;28;20042;-67
2021/11/03 03:32:47;;;;;;;1.98;0.60;;;21.80;47.30;;;;;;5147984;28;20050;-67
2021/11/03 03:35:21;;;;;;;;;;;21.80;47.40;;;;;;5147637;28;20765;-67
2021/11/03 03:37:53;;;;;;;1.05;0.77;;;21.80;47.40;;;;;;5165217;28;19931;-66
2021/11/03 03:40:26;;;;;;;1.63;0.88;;;21.80;47.50;;;;;;5144408;28;20042;-66
2021/11/03 03:42:58;;;;;;;1.58;0.82;;;21.80;47.50;;;;;;5174968;28;20057;-66
2021/11/03 03:45:31;;;;;;;1.27;1.10;;;21.80;47.50;;;;;;5173196;28;20411;-66
2021/11/03 03:48:04;;;;;;;1.73;1.08;;;21.80;47.50;;;;;;5172899;28;20058;-65
2021/11/03 03:50:37;;;;;;;1.20;1.00;;;21.80;47.50;;;;;;5172831;28;20054;-65
2021/11/03 03:53:10;;;;;;;1.92;1.00;;;21.80;47.60;;;;;;5176279;28;20053;-65
2021/11/03 03:55:43;;;;;;;;;;;21.80;47.70;;;;;;5150457;28;20049;-65
2021/11/03 03:58:17;;;;;;;1.98;0.88;;;21.80;47.70;;;;;;5154303;28;19925;-65
2021/11/03 04:00:51;;;;;;;1.55;1.17;;;21.80;47.70;;;;;;5175653;28;20053;-65
2021/11/03 04:03:24;;;;;;;2.08;1.50;;;21.80;47.60;;;;;;5174075;28;20422;-68
2021/11/03 04:05:56;;;;;;;1.48;1.08;;;21.80;47.60;;;;;;5173774;28;20057;-68
2021/11/03 04:08:29;;;;;;;3.97;1.20;;;21.80;47.50;;;;;;5150479;28;20044;-67
2021/11/03 04:11:02;;;;;;;;;;;21.80;47.80;;;;;;5165745;28;20272;-65
2021/11/03 04:13:36;;;;;;;3.05;1.42;;;21.70;47.90;;;;;;5162252;28;19930;-66
2021/11/03 04:16:10;;;;;;;5.57;2.13;;;21.80;48.20;;;;;;5163368;28;20639;-65
2021/11/03 04:18:42;;;;;;;2.88;1.08;;;21.80;48.40;;;;;;5163593;28;20050;-65
2021/11/03 04:21:15;;;;;;;9.48;1.67;;;21.90;48.50;;;;;;5149503;28;20787;-65
2021/11/03 04:23:50;;;;;;;2.50;1.20;;;21.90;48.60;;;;;;5174873;28;20046;-65
2021/11/03 04:26:27;;;;;;;9.00;1.42;;;21.90;48.80;;;;;;5141885;28;20084;-66
2021/11/03 04:29:04;;;;;;;4.15;1.15;;;21.90;48.90;;;;;;5138309;28;20050;-65
2021/11/03 04:31:38;;;;;;;4.50;1.73;;;21.90;49.00;;;;;;5138295;28;20053;-65
2021/11/03 04:34:11;;;;;;;3.42;0.75;;;21.90;49.10;;;;;;5158859;28;20042;-65
2021/11/03 04:36:44;;;;;;;4.03;1.50;;;21.90;49.10;;;;;;5142083;28;20056;-65
2021/11/03 04:39:18;;;;;;;4.03;1.20;;;21.90;49.20;;;;;;5132775;28;20040;-66
2021/11/03 04:41:52;;;;;;;4.20;0.95;;;21.90;49.30;;;;;;5136131;28;20042;-65
2021/11/03 04:44:25;;;;;;;2.67;1.10;;;22.00;49.40;;;;;;5160408;28;20042;-65
2021/11/03 04:46:58;;;;;;;3.28;1.17;;;21.90;49.50;;;;;;5150796;28;20054;-65
2021/11/03 04:49:35;;;;;;;3.65;0.88;;;21.90;49.60;;;;;;5157362;28;20050;-65
2021/11/03 04:52:09;;;;;;;3.38;1.20;;;21.90;49.60;;;;;;5158399;28;20054;-65
2021/11/03 04:54:41;;;;;;;2.63;1.20;;;22.00;49.80;;;;;;5152656;28;20054;-65
2021/11/03 04:57:18;;;;;;;5.80;0.90;;;22.00;49.90;;;;;;5167728;28;20057;-65
2021/11/03 04:59:51;;;;;;;2.13;1.00;;;21.90;49.90;;;;;;5150762;28;20069;-65
2021/11/03 05:02:24;;;;;;;1.85;1.10;;;22.00;50.00;;;;;;5168787;28;20042;-65
2021/11/03 05:04:57;;;;;;;2.28;1.00;;;22.00;50.20;;;;;;5167731;28;20041;-65
2021/11/03 05:07:29;;;;;;;3.63;0.95;;;22.00;50.20;;;;;;5150218;28;20045;-65
2021/11/03 05:10:02;;;;;;;2.58;1.00;;;22.00;50.30;;;;;;5165853;28;20677;-65
2021/11/03 05:12:34;;;;;;;2.95;1.20;;;22.00;50.40;;;;;;5169892;28;20073;-66
2021/11/03 05:15:07;;;;;;;9.40;1.80;;;22.00;50.50;;;;;;5146244;28;20785;-66
2021/11/03 05:17:40;;;;;;;8.93;1.20;;;22.00;50.60;;;;;;5171628;28;20054;-65
2021/11/03 05:20:15;;;;;;;3.30;0.90;;;22.00;50.70;;;;;;5162625;28;20045;-65
2021/11/03 05:22:49;;;;;;;7.32;1.00;;;22.00;50.80;;;;;;5169004;28;20445;-65
2021/11/03 05:25:25;;;;;;;4.53;1.17;;;22.10;50.90;;;;;;5166414;28;20050;-66
2021/11/03 05:27:58;;;;;;;3.72;1.40;;;22.10;51.00;;;;;;5158733;28;20558;-64
2021/11/03 05:30:30;;;;;;;5.72;1.50;;;22.00;51.00;;;;;;5157274;28;20054;-66
2021/11/03 05:33:03;;;;;;;7.97;1.20;;;22.10;51.10;;;;;;5158924;28;20058;-64
2021/11/03 05:35:36;;;;;;;4.85;1.45;;;22.10;51.20;;;;;;5156096;28;20054;-68
2021/11/03 05:38:08;;;;;;;7.13;1.92;;;22.10;51.20;;;;;;5163610;28;21092;-67
2021/11/03 05:40:40;;;;;;;8.77;1.70;;;22.10;51.30;;;;;;5162345;28;20041;-67
2021/11/03 05:43:13;;;;;;;10.48;1.50;;;22.10;51.30;;;;;;5166274;28;20050;-67
2021/11/03 05:45:45;;;;;;;11.35;2.13;;;22.20;51.30;;;;;;5163570;28;20046;-67
2021/11/03 05:48:19;;;;;;;9.63;1.95;;;22.20;51.30;;;;;;5171187;28;20524;-67
2021/11/03 05:50:52;;;;;;;10.27;1.50;;;22.20;51.30;;;;;;5173125;28;20895;-66
2021/11/03 05:53:25;;;;;;;11.32;2.00;;;22.20;51.30;;;;;;5173363;28;20045;-67
2021/11/03 05:55:57;;;;;;;8.88;1.75;;;22.20;51.30;;;;;;5174087;28;20053;-66
2021/11/03 05:58:31;;;;;;;6.90;2.13;;;22.20;51.30;;;;;;5169512;28;20179;-66
2021/11/03 06:01:05;;;;;;;10.07;2.15;;;22.30;51.40;;;;;;5159931;28;20057;-66
2021/11/03 06:03:38;;;;;;;10.55;1.88;;;22.30;51.40;;;;;;5164223;28;20495;-66
2021/11/03 06:06:12;;;;;;;7.30;1.70;;;22.30;51.40;;;;;;5166880;28;20030;-66
2021/11/03 06:08:44;;;;;;;;;;;22.30;51.40;;;;;;5172954;28;20502;-66
2021/11/03 06:11:19;;;;;;;7.03;1.65;;;22.30;51.50;;;;;;5172177;28;19928;-66
2021/11/03 06:13:52;;;;;;;16.33;1.55;;;22.30;51.50;;;;;;5173177;28;20054;-67
2021/11/03 06:16:25;;;;;;;8.07;1.92;;;22.30;51.50;;;;;;5173767;28;20038;-67
2021/11/03 06:18:57;;;;;;;8.38;1.35;;;22.30;51.50;;;;;;5173671;28;21031;-67
2021/11/03 06:21:32;;;;;;;9.20;1.60;;;22.40;51.60;;;;;;5172982;28;20053;-67
2021/11/03 06:24:04;;;;;;;6.55;1.50;;;22.40;51.60;;;;;;5162787;28;20497;-67
2021/11/03 06:26:37;;;;;;;11.50;1.35;;;22.40;51.60;;;;;;5164270;28;20069;-67
2021/11/03 06:29:09;;;;;;;5.45;1.98;;;22.40;51.60;;;;;;5165459;28;20046;-67
2021/11/03 06:31:42;;;;;;;6.50;1.30;;;22.40;51.60;;;;;;5155389;28;20053;-66
2021/11/03 06:34:14;;;;;;;5.03;1.27;;;22.40;51.60;;;;;;5164949;28;20049;-66
2021/11/03 06:36:46;;;;;;;3.88;1.40;;;22.40;51.70;;;;;;5155538;28;20050;-67
2021/11/03 06:39:19;;;;;;;8.57;1.30;;;22.50;51.80;;;;;;5159494;28;20057;-67
2021/11/03 06:41:51;;;;;;;7.05;1.77;;;22.50;51.80;;;;;;5161105;28;20049;-67
2021/11/03 06:44:24;;;;;;;9.05;1.67;;;22.50;51.80;;;;;;5161911;28;20060;-67
2021/11/03 06:46:56;;;;;;;13.13;1.80;;;22.50;51.80;;;;;;5157161;28;20037;-66
2021/11/03 06:49:29;;;;;;;7.22;1.48;;;22.50;51.80;;;;;;5158292;28;20609;-66
2021/11/03 06:52:01;;;;;;;6.85;1.90;;;22.50;51.80;;;;;;5155457;28;20319;-67
2021/11/03 06:54:33;;;;;;;9.80;1.58;;;22.50;51.90;;;;;;5155470;28;20046;-67
2021/11/03 06:57:06;;;;;;;5.47;1.40;;;22.50;51.90;;;;;;5152182;28;20042;-67
2021/11/03 06:59:39;;;;;;;5.68;1.45;;;22.50;51.90;;;;;;5155718;28;20046;-67
2021/11/03 07:02:16;;;;;;;6.10;1.35;;;22.50;51.90;;;;;;5147814;28;20050;-67
2021/11/03 07:04:48;;;;;;;3.53;1.58;;;22.50;52.00;;;;;;5145385;28;20410;-67
2021/11/03 07:07:21;;;;;;;8.45;1.52;;;22.50;52.00;;;;;;5149913;28;20565;-66
2021/11/03 07:09:53;;;;;;;6.03;1.50;;;22.50;52.00;;;;;;5150299;28;20049;-66
2021/11/03 07:12:25;;;;;;;10.35;1.92;;;22.50;52.10;;;;;;5148089;28;21335;-65
2021/11/03 07:14:58;;;;;;;9.07;1.75;;;22.60;52.10;;;;;;5151301;28;20050;-67
2021/11/03 07:17:30;;;;;;;4.93;1.75;;;22.60;52.50;;;;;;5156409;28;20045;-67
2021/11/03 07:20:03;;;;;;;11.90;1.85;;;22.60;52.20;;;;;;5160019;28;20517;-67
2021/11/03 07:22:35;;;;;;;7.93;2.25;;;22.60;52.20;;;;;;5161702;28;20057;-66
2021/11/03 07:25:10;;;;;;;10.45;1.85;;;22.60;52.20;;;;;;5156657;28;20050;-66
2021/11/03 07:27:47;;;;;;;6.50;1.80;;;22.60;52.20;;;;;;5157820;28;20041;-66
2021/11/03 07:30:21;;;;;;;6.97;1.48;;;22.60;52.20;;;;;;5156495;28;20046;-66
2021/11/03 07:32:54;;;;;;;6.10;1.70;;;22.60;52.20;;;;;;5158802;28;20050;-66
2021/11/03 07:35:27;;;;;;;10.20;2.03;;;22.60;52.30;;;;;;5156719;28;20053;-66
2021/11/03 07:38:00;;;;;;;7.18;1.50;;;22.60;52.30;;;;;;5160638;28;20061;-67
2021/11/03 07:40:36;;;;;;;4.70;1.58;;;22.60;52.30;;;;;;5164037;28;20046;-66
2021/11/03 07:43:11;;;;;;;11.23;2.25;;;22.60;52.30;;;;;;5160036;28;20052;-66
2021/11/03 07:45:46;;;;;;;13.98;2.00;;;22.60;52.30;;;;;;5161431;28;21059;-66
2021/11/03 07:48:20;;;;;;;34.65;2.92;;;22.60;52.40;;;;;;5157567;28;20844;-66
2021/11/03 07:51:04;;;;;;;8.05;1.77;;;22.60;52.50;;;;;;5163732;28;20129;-66
2021/11/03 07:53:37;;;;;;;6.97;1.88;;;22.70;52.50;;;;;;5161449;28;20056;-65
2021/11/03 07:56:15;;;;;;;7.57;1.70;;;22.60;52.50;;;;;;5162283;28;20498;-67
2021/11/03 07:58:53;;;;;;;8.82;1.92;;;22.70;52.60;;;;;;5161927;28;20450;-66
2021/11/03 08:01:25;;;;;;;8.45;1.70;;;22.70;52.60;;;;;;5161482;28;20049;-66
2021/11/03 08:03:58;;;;;;;17.33;2.17;;;22.60;52.60;;;;;;5164669;28;20058;-65
2021/11/03 08:06:31;;;;;;;12.90;1.77;;;22.60;52.60;;;;;;5163730;28;20046;-66
2021/11/03 08:09:05;;;;;;;7.40;1.85;;;22.70;52.80;;;;;;5160472;28;20053;-66
2021/11/03 08:11:49;;;;;;;14.52;2.25;;;22.70;52.70;;;;;;5166157;28;20672;-66
2021/11/03 08:14:25;;;;;;;10.15;2.80;;;22.70;52.60;;;;;;5144587;28;20057;-67
2021/11/03 08:17:06;;;;;;;12.30;2.10;;;22.70;52.50;;;;;;5159547;28;20053;-67
2021/11/03 08:19:48;;;;;;;7.93;1.85;;;22.70;52.40;;;;;;5158429;28;20054;-66
2021/11/03 08:22:24;;;;;;;16.40;2.22;;;22.70;52.40;;;;;;5158760;28;20522;-66
2021/11/03 08:24:56;;;;;;;13.75;1.85;;;22.70;52.30;;;;;;5157776;28;20049;-66
2021/11/03 08:27:29;;;;;;;14.93;2.63;;;22.70;52.20;;;;;;5160303;28;20061;-67
2021/11/03 08:30:05;;;;;;;12.77;1.50;;;22.70;52.80;;;;;;5163756;28;20042;-68
2021/11/03 08:32:48;;;;;;;12.52;2.15;;;22.70;52.10;;;;;;5157664;28;20065;-68
2021/11/03 08:35:25;;;;;;;12.40;1.70;;;22.70;52.10;;;;;;5148088;28;20506;-68
2021/11/03 08:38:03;;;;;;;10.30;1.80;;;22.70;52.40;;;;;;5149686;28;20750;-69
2021/11/03 08:40:36;;;;;;;11.85;1.75;;;22.70;52.40;;;;;;5152348;28;20043;-69
2021/11/03 08:43:09;;;;;;;6.43;1.40;;;22.70;52.30;;;;;;5152012;28;20682;-69
2021/11/03 08:45:45;;;;;;;12.80;1.77;;;22.70;52.40;;;;;;5132524;28;20418;-69
2021/11/03 08:48:19;;;;;;;11.10;1.70;;;22.70;52.40;;;;;;5166371;28;20060;-71
2021/11/03 08:50:53;;;;;;;12.55;1.77;;;22.70;52.30;;;;;;5166933;28;20511;-71
2021/11/03 08:53:25;;;;;;;6.22;1.33;;;22.70;52.30;;;;;;5175063;28;20425;-72
2021/11/03 08:55:58;;;;;;;6.82;2.15;;;22.70;52.20;;;;;;5173456;28;20409;-71
2021/11/03 08:58:30;;;;;;;10.77;1.52;;;22.70;52.20;;;;;;5173262;28;20050;-72
2021/11/03 09:01:03;;;;;;;7.47;1.58;;;22.70;52.10;;;;;;5172239;28;20049;-71
2021/11/03 09:03:36;;;;;;;;;;;22.70;52.10;;;;;;5175957;28;20125;-71
2021/11/03 09:06:09;;;;;;;6.28;1.48;;;22.70;52.10;;;;;;5172767;28;19932;-71
2021/11/03 09:08:47;;;;;;;6.95;1.63;;;22.70;52.10;;;;;;5172747;28;20062;-71
2021/11/03 09:11:21;;;;;;;5.60;1.50;;;22.70;52.00;;;;;;5170272;28;21038;-71
2021/11/03 09:13:53;;;;;;;4.80;1.40;;;22.70;52.00;;;;;;5168521;28;20065;-71
2021/11/03 09:16:27;;;;;;;8.13;1.38;;;22.70;52.00;;;;;;5169805;28;20053;-72
2021/11/03 09:19:00;;;;;;;4.80;1.33;;;22.70;52.00;;;;;;5152386;28;20046;-71
2021/11/03 09:21:33;;;;;;;6.43;1.15;;;22.70;52.00;;;;;;5171003;28;20053;-71
2021/11/03 09:24:05;;;;;;;4.82;1.25;;;22.70;52.00;;;;;;5168134;28;20049;-71
2021/11/03 09:26:38;;;;;;;8.00;1.73;;;22.70;52.00;;;;;;5166042;28;20069;-71
2021/11/03 09:29:12;;;;;;;5.22;1.40;;;22.70;51.90;;;;;;5158870;28;20184;-72
2021/11/03 09:31:44;;;;;;;5.22;1.02;;;22.70;51.90;;;;;;5171494;28;20060;-71
2021/11/03 09:34:17;;;;;;;2.72;1.17;;;22.70;51.90;;;;;;5138630;28;20054;-71
2021/11/03 09:36:50;;;;;;;3.53;0.88;;;22.70;51.90;;;;;;5168026;28;20069;-71
2021/11/03 09:39:23;;;;;;;7.07;1.52;;;22.70;51.90;;;;;;5168022;28;20049;-71
2021/11/03 09:41:56;;;;;;;6.22;1.67;;;22.70;51.90;;;;;;5172952;28;20059;-71
2021/11/03 09:44:50;;;;;;;3.88;1.10;;;22.70;51.90;;;;;;5171434;28;20049;-71
2021/11/03 09:47:27;;;;;;;2.53;1.02;;;22.70;51.90;;;;;;5169472;28;20042;-72
2021/11/03 09:50:11;;;;;;;6.22;1.40;;;22.70;51.90;;;;;;5169547;28;20049;-71
2021/11/03 09:52:57;;;;;;;9.15;1.10;;;22.70;51.90;;;;;;5170414;28;20414;-72
2021/11/03 09:55:33;;;;;;;3.60;1.15;;;22.70;51.80;;;;;;5172261;28;20053;-71
2021/11/03 09:58:23;;;;;;;3.78;1.20;;;22.70;51.80;;;;;;5152316;28;20050;-71
2021/11/03 10:01:29;;;;;;;1.55;0.82;;;22.70;51.80;;;;;;5166719;28;20054;-71
2021/11/03 10:04:13;;;;;;;3.50;1.08;;;22.70;51.90;;;;;;5170685;28;20046;-71
2021/11/03 10:07:18;;;;;;;4.43;1.10;;;22.70;51.80;;;;;;5171623;28;20046;-72
2021/11/03 10:09:51;;;;;;;5.03;0.80;;;22.70;51.80;;;;;;5160521;28;20054;-72
2021/11/03 10:12:25;;;;;;;3.22;0.93;;;22.70;51.90;;;;;;5159989;28;20046;-71
2021/11/03 10:14:57;;;;;;;3.70;0.98;;;22.70;51.80;;;;;;5169812;28;20844;-71
2021/11/03 10:17:31;;;;;;;2.15;0.85;;;22.70;51.80;;;;;;5169860;28;20041;-71
2021/11/03 10:20:43;;;;;;;2.75;0.85;;;22.70;51.80;;;;;;5169328;28;20050;-72
2021/11/03 10:23:21;;;;;;;2.15;0.90;;;22.70;51.80;;;;;;5087635;29;20051;-71
2021/11/03 10:26:07;;;;;;;4.60;0.75;;;22.70;51.80;;;;;;5164296;28;20045;-71
2021/11/03 10:28:47;;;;;;;1.92;0.77;;;22.70;51.80;;;;;;5152269;28;20507;-72
2021/11/03 10:31:38;;;;;;;4.18;1.10;;;22.70;51.80;;;;;;5168370;28;20050;-70
2021/11/03 10:34:35;;;;;;;4.50;1.02;;;22.70;51.80;;;;;;5170762;28;20998;-71
2021/11/03 10:37:16;;;;;;;2.75;1.10;;;22.70;51.90;;;;;;5171664;28;20046;-71
2021/11/03 10:40:01;;;;;;;2.53;1.00;;;22.70;51.80;;;;;;5170180;28;20616;-70
2021/11/03 10:42:40;;;;;;;1.58;0.80;;;22.70;51.80;;;;;;5171246;28;20050;-71
2021/11/03 10:45:15;;;;;;;3.20;0.80;;;22.70;51.80;;;;;;5169591;28;20042;-71
2021/11/03 10:48:20;;;;;;;2.70;0.98;;;22.70;51.80;;;;;;5171569;28;20045;-71
2021/11/03 10:50:55;;;;;;;4.50;1.02;;;22.70;51.80;;;;;;5160266;28;20052;-71
2021/11/03 10:53:44;;;;;;;0.93;0.70;;;22.70;51.80;;;;;;5140834;28;20061;-71
2021/11/03 10:56:26;;;;;;;6.10;1.13;;;22.70;51.90;;;;;;5167276;28;20053;-72
2021/11/03 10:59:19;;;;;;;1.52;0.80;;;22.70;51.80;;;;;;5166532;28;20053;-71
2021/11/03 11:02:22;;;;;;;2.13;0.80;;;22.60;51.80;;;;;;5160722;28;20046;-71
2021/11/03 11:04:58;;;;;;;2.47;0.80;;;22.60;51.80;;;;;;5167080;28;20545;-71
2021/11/03 11:07:33;;;;;;;1.95;0.88;;;22.70;51.90;;;;;;5164104;28;20542;-71
2021/11/03 11:10:32;;;;;;;2.78;0.77;;;22.60;51.90;;;;;;5165996;28;20047;-71
2021/11/03 11:13:06;;;;;;;4.88;1.10;;;22.60;51.80;;;;;;5163414;28;20417;-68
2021/11/03 11:15:59;;;;;;;5.03;1.02;;;22.60;51.90;;;;;;5149689;28;20462;-68
2021/11/03 11:19:04;;;;;;;2.35;1.17;;;22.60;52.10;;;;;;5157298;28;20057;-69
2021/11/03 11:22:06;;;;;;;5.18;0.90;;;22.60;52.10;;;;;;5160358;28;20046;-69
2021/11/03 11:24:42;;;;;;;1.60;0.70;;;22.60;52.20;;;;;;5130736;28;22871;-69
2021/11/03 11:27:26;;;;;;;3.20;0.88;;;22.60;52.20;;;;;;5154474;28;20048;-70
2021/11/03 11:30:15;;;;;;;2.25;1.00;;;22.60;52.20;;;;;;5154224;28;20053;-70
2021/11/03 11:33:03;;;;;;;2.47;1.00;;;22.60;52.20;;;;;;5157008;28;20855;-68
2021/11/03 11:36:04;;;;;;;2.97;0.95;;;22.60;52.30;;;;;;5147105;28;20676;-70
2021/11/03 11:38:49;;;;;;;2.58;1.00;;;22.60;52.50;;;;;;5148720;28;20072;-70
2021/11/03 11:41:50;;;;;;;3.60;1.33;;;22.60;52.50;;;;;;5156600;28;20880;-70
2021/11/03 11:44:31;;;;;;;4.50;0.90;;;22.60;52.60;;;;;;5116467;28;20046;-70
2021/11/03 11:47:07;;;;;;;1.92;0.70;;;22.60;52.70;;;;;;5155074;28;21956;-71
2021/11/03 11:49:43;;;;;;;2.05;0.80;;;22.70;52.90;;;;;;5156363;28;20049;-70
2021/11/03 11:52:21;;;;;;;4.72;1.25;;;22.60;52.80;;;;;;5147999;28;20045;-68
2021/11/03 11:55:11;;;;;;;4.45;1.08;;;22.60;52.80;;;;;;5152188;28;20440;-70
2021/11/03 11:58:06;;;;;;;3.05;0.90;;;22.70;53.00;;;;;;5159272;28;20042;-69
2021/11/03 12:00:59;;;;;;;4.65;1.05;;;22.70;53.10;;;;;;5150222;28;20038;-70
2021/11/03 12:03:31;;;;;;;3.58;0.90;;;22.70;53.20;;;;;;5146835;28;20053;-69
2021/11/03 12:06:53;;;;;;;1.90;1.00;;;22.70;53.20;;;;;;5154871;28;20533;-70
2021/11/03 12:10:04;;;;;;;3.50;1.48;;;22.70;53.20;;;;;;5154740;28;20061;-68
2021/11/03 12:13:08;;;;;;;7.32;1.42;;;22.70;53.30;;;;;;5159214;28;20050;-69
2021/11/03 12:15:48;;;;;;;3.42;1.10;;;22.70;53.30;;;;;;5148778;28;20053;-70
2021/11/03 12:18:28;;;;;;;4.40;1.10;;;22.70;53.40;;;;;;5155901;28;20399;-68
2021/11/03 12:21:01;;;;;;;3.67;1.15;;;22.70;53.40;;;;;;5151623;28;20057;-70
2021/11/03 12:23:40;;;;;;;2.22;1.00;;;22.70;53.40;;;;;;5148286;28;20042;-68
2021/11/03 12:26:21;;;;;;;2.45;0.90;;;22.70;53.40;;;;;;5146795;28;20046;-70
2021/11/03 12:29:24;;;;;;;2.40;1.10;;;22.70;53.50;;;;;;5150464;28;20407;-69
2021/11/03 12:32:00;;;;;;;9.75;1.00;;;22.70;53.70;;;;;;5150030;28;20047;-71
2021/11/03 12:34:38;;;;;;;2.83;1.02;;;22.70;53.60;;;;;;5149602;28;20058;-69
2021/11/03 12:37:11;;;;;;;4.30;0.95;;;22.70;53.60;;;;;;5149647;28;20045;-70
2021/11/03 12:39:46;;;;;;;4.05;0.90;;;22.70;53.70;;;;;;5149001;28;20042;-68
2021/11/03 12:42:28;;;;;;;1.35;0.85;;;22.80;53.80;;;;;;5130818;28;20046;-68
2021/11/03 12:45:06;;;;;;;2.08;1.00;;;22.70;53.80;;;;;;5152146;28;20057;-68
2021/11/03 12:47:49;;;;;;;4.35;1.10;;;22.70;53.80;;;;;;5155019;28;20061;-67
2021/11/03 12:50:40;;;;;;;2.08;0.70;;;22.70;53.80;;;;;;5149179;28;21080;-67
2021/11/03 12:53:17;;;;;;;2.95;1.05;;;22.80;53.90;;;;;;5157539;28;20049;-67
2021/11/03 12:55:54;;;;;;;2.08;0.60;;;22.80;53.70;;;;;;5155485;28;20042;-67
2021/11/03 12:58:29;;;;;;;5.93;0.98;;;22.80;53.70;;;;;;5143383;28;20057;-67
2021/11/03 13:01:06;;;;;;;2.95;0.90;;;22.80;53.60;;;;;;5159710;28;20077;-68
2021/11/03 13:03:47;;;;;;;6.60;1.42;;;22.80;53.50;;;;;;5153066;28;20052;-67
2021/11/03 13:06:37;;;;;;;2.08;0.80;;;22.80;53.40;;;;;;5162630;28;20045;-67
2021/11/03 13:09:28;;;;;;;2.95;0.88;;;22.80;53.30;;;;;;5164131;28;20072;-67
2021/11/03 13:12:02;;;;;;;1.67;0.80;;;22.80;53.20;;;;;;5151112;28;20576;-68
2021/11/03 13:14:35;;;;;;;4.07;1.35;;;22.80;53.20;;;;;;5135753;28;22030;-67
2021/11/03 13:17:07;;;;;;;5.95;1.52;;;22.80;53.10;;;;;;5141910;28;20054;-67
2021/11/03 13:19:42;;;;;;;2.33;1.17;;;22.80;53.10;;;;;;5153716;28;20065;-68
2021/11/03 13:22:21;;;;;;;2.75;1.08;;;22.80;53.10;;;;;;5155121;28;20045;-67
2021/11/03 13:24:57;;;;;;;3.28;1.00;;;22.80;53.00;;;;;;5161466;28;20061;-67
2021/11/03 13:27:31;;;;;;;3.67;1.20;;;22.80;53.00;;;;;;5153632;28;20153;-67
2021/11/03 13:30:08;;;;;;;2.25;1.15;;;22.80;53.00;;;;;;5147092;28;20041;-67
2021/11/03 13:33:32;;;;;;;3.17;1.33;;;22.80;52.90;;;;;;5150703;28;20589;-68
2021/11/03 13:36:17;;;;;;;3.67;1.23;;;22.80;52.90;;;;;;5087260;28;20543;-67
2021/11/03 13:39:03;;;;;;;4.20;1.67;;;22.80;53.00;;;;;;5149676;28;20302;-67
2021/11/03 13:41:42;;;;;;;4.30;1.70;;;22.80;53.00;;;;;;5149006;28;20951;-67